Time;durP1;ratioP1;P1;durP2;ratioP2;P2;SDS_P1;SDS_P2;PMS_P1;PMS_P2;Temp;Humidity;BMP_temperature;BMP_pressure;BME280_temperature;BME280_humidity;BME280_pressure;Samples;Min_cycle;Max_cycle;Signal;HPM_P1;HPM_P2
2023/12/10 00:00:16;;;;;;;4.72;1.50;;;9.10;91.80;;;;;;5116272;27;20019;-74
2023/12/10 00:02:42;;;;;;;7.00;1.52;;;9.10;91.80;;;;;;5098320;27;20043;-74
2023/12/10 00:05:08;;;;;;;6.68;1.48;;;9.10;91.80;;;;;;5114682;28;20061;-74
2023/12/10 00:07:34;;;;;;;6.57;1.65;;;9.10;91.70;;;;;;5133558;27;20047;-74
2023/12/10 00:09:59;;;;;;;7.78;1.77;;;9.10;91.70;;;;;;5133992;27;20096;-73
2023/12/10 00:12:25;;;;;;;5.07;1.75;;;9.20;91.70;;;;;;5133471;27;20043;-73
2023/12/10 00:14:54;;;;;;;9.52;1.95;;;9.20;91.70;;;;;;5133504;27;20043;-73
2023/12/10 00:17:21;;;;;;;5.47;1.52;;;9.20;91.60;;;;;;5098392;27;20091;-73
2023/12/10 00:19:47;;;;;;;5.35;1.58;;;9.20;91.50;;;;;;5115332;28;20043;-74
2023/12/10 00:22:13;;;;;;;5.30;1.60;;;9.30;91.50;;;;;;5133628;27;20504;-74
2023/12/10 00:24:40;;;;;;;9.55;1.83;;;9.20;91.40;;;;;;5114671;27;20162;-74
2023/12/10 00:27:05;;;;;;;5.40;1.48;;;9.20;91.40;;;;;;5114993;27;20043;-74
2023/12/10 00:29:31;;;;;;;5.57;1.60;;;9.30;91.40;;;;;;5133971;27;20508;-73
2023/12/10 00:31:57;;;;;;;7.20;1.80;;;9.30;91.40;;;;;;5114881;28;20039;-73
2023/12/10 00:34:22;;;;;;;11.30;2.00;;;9.30;91.40;;;;;;5114719;27;20035;-73
2023/12/10 00:36:48;;;;;;;4.78;1.60;;;9.30;91.30;;;;;;5097779;27;20394;-73
2023/12/10 00:39:14;;;;;;;6.15;1.80;;;9.30;91.30;;;;;;5133182;27;20095;-73
2023/12/10 00:41:40;;;;;;;10.75;2.42;;;9.30;91.30;;;;;;5133344;27;20035;-73
2023/12/10 00:44:06;;;;;;;8.00;2.17;;;9.20;91.30;;;;;;5115098;28;20035;-73
2023/12/10 00:46:31;;;;;;;8.50;2.10;;;9.10;91.40;;;;;;5132694;27;20533;-73
2023/12/10 00:48:57;;;;;;;6.93;1.80;;;9.10;91.50;;;;;;5133478;27;20039;-73
2023/12/10 00:51:23;;;;;;;8.07;2.10;;;9.00;91.50;;;;;;5133192;27;20139;-73
2023/12/10 00:53:50;;;;;;;9.05;2.22;;;9.00;91.50;;;;;;5115070;27;20035;-74
2023/12/10 00:56:16;;;;;;;7.20;2.15;;;9.00;91.60;;;;;;5111040;28;20035;-74
2023/12/10 00:58:43;;;;;;;8.15;2.03;;;8.90;91.60;;;;;;5112636;28;20066;-74
2023/12/10 01:01:09;;;;;;;12.35;2.15;;;8.90;91.60;;;;;;5114038;27;20050;-73
2023/12/10 01:03:35;;;;;;;5.18;1.42;;;8.90;91.70;;;;;;5132516;27;20039;-73
2023/12/10 01:06:03;;;;;;;8.93;1.70;;;8.80;91.70;;;;;;5110716;28;20036;-73
2023/12/10 01:08:30;;;;;;;7.93;1.90;;;8.80;91.70;;;;;;5114595;27;20067;-73
2023/12/10 01:10:56;;;;;;;6.85;1.70;;;8.80;91.80;;;;;;5132757;27;20047;-73
2023/12/10 01:13:24;;;;;;;7.75;1.70;;;8.80;91.80;;;;;;5132849;27;20047;-74
2023/12/10 01:15:51;;;;;;;7.22;2.10;;;8.80;91.80;;;;;;5072571;28;20136;-75
2023/12/10 01:18:16;;;;;;;4.85;1.27;;;8.70;91.70;;;;;;5092308;28;20377;-73
2023/12/10 01:20:42;;;;;;;4.55;1.40;;;8.70;91.80;;;;;;5093611;28;20078;-73
2023/12/10 01:23:08;;;;;;;8.40;1.85;;;8.80;91.90;;;;;;5075716;28;20039;-74
2023/12/10 01:25:35;;;;;;;7.10;1.60;;;8.70;91.90;;;;;;5093154;28;20032;-73
2023/12/10 01:28:01;;;;;;;5.28;1.25;;;8.70;91.90;;;;;;5093185;28;20040;-74
2023/12/10 01:30:27;;;;;;;7.15;1.60;;;8.70;91.90;;;;;;5092723;28;20114;-74
2023/12/10 01:32:55;;;;;;;7.72;1.45;;;8.70;91.90;;;;;;5075600;28;20048;-74
2023/12/10 01:35:21;;;;;;;7.93;1.50;;;8.70;91.90;;;;;;5075701;28;20043;-74
2023/12/10 01:37:47;;;;;;;8.20;1.70;;;8.60;91.90;;;;;;5093222;28;20043;-73
2023/12/10 01:40:14;;;;;;;7.20;1.48;;;8.60;92.00;;;;;;5092497;28;20044;-74
2023/12/10 01:42:41;;;;;;;6.93;1.17;;;8.60;92.00;;;;;;5092940;28;20050;-73
2023/12/10 01:45:08;;;;;;;5.95;1.40;;;8.60;92.00;;;;;;5093166;28;20094;-73
2023/12/10 01:47:38;;;;;;;7.50;1.75;;;8.60;92.00;;;;;;5125863;27;20424;-73
2023/12/10 01:50:04;;;;;;;6.43;1.90;;;8.60;91.90;;;;;;5131473;27;20113;-74
2023/12/10 01:52:32;;;;;;;4.40;1.58;;;8.60;91.90;;;;;;5135910;27;20043;-73
2023/12/10 01:55:01;;;;;;;9.13;1.52;;;8.70;91.90;;;;;;5099080;27;20035;-74
2023/12/10 01:57:28;;;;;;;5.15;1.30;;;8.60;91.90;;;;;;5135976;27;20040;-74
2023/12/10 01:59:53;;;;;;;7.88;1.70;;;8.60;91.90;;;;;;5135480;27;20096;-74
2023/12/10 02:02:21;;;;;;;7.03;1.58;;;8.60;91.80;;;;;;5093474;28;20040;-74
2023/12/10 02:04:47;;;;;;;5.88;1.65;;;8.60;91.90;;;;;;5113202;28;20047;-73
2023/12/10 02:07:13;;;;;;;5.82;1.63;;;8.60;91.90;;;;;;5095236;28;20047;-74
2023/12/10 02:09:39;;;;;;;7.40;1.40;;;8.60;91.90;;;;;;5113257;28;20077;-73
2023/12/10 02:12:06;;;;;;;6.35;1.40;;;8.50;91.90;;;;;;5078426;28;20071;-74
2023/12/10 02:14:31;;;;;;;6.03;1.63;;;8.60;91.90;;;;;;5112811;28;20036;-72
2023/12/10 02:16:57;;;;;;;4.35;1.10;;;8.50;91.90;;;;;;5112434;28;20442;-72
2023/12/10 02:19:23;;;;;;;4.90;1.35;;;8.50;91.90;;;;;;5095328;28;20073;-73
2023/12/10 02:21:51;;;;;;;6.75;1.77;;;8.50;91.90;;;;;;5112192;28;20047;-74
2023/12/10 02:24:26;;;;;;;5.55;1.35;;;8.50;91.90;;;;;;5112304;28;20403;-72
2023/12/10 02:26:52;;;;;;;4.63;1.75;;;8.50;91.90;;;;;;5095047;28;20532;-72
2023/12/10 02:29:18;;;;;;;5.55;1.52;;;8.50;91.90;;;;;;5111349;28;20039;-72
2023/12/10 02:31:43;;;;;;;5.22;1.45;;;8.50;91.90;;;;;;5112464;28;20078;-72
2023/12/10 02:34:09;;;;;;;6.47;1.67;;;8.50;91.90;;;;;;5108643;28;20071;-72
2023/12/10 02:36:35;;;;;;;6.03;1.73;;;8.50;91.90;;;;;;5113694;27;20085;-72
2023/12/10 02:39:01;;;;;;;6.22;1.77;;;8.50;91.90;;;;;;5135213;27;20035;-73
2023/12/10 02:41:27;;;;;;;9.00;1.73;;;8.40;91.90;;;;;;5134556;27;20047;-72
2023/12/10 02:43:52;;;;;;;6.70;1.85;;;8.50;91.90;;;;;;5115984;27;20482;-71
2023/12/10 02:46:18;;;;;;;6.35;1.83;;;8.40;91.90;;;;;;5134480;27;20043;-72
2023/12/10 02:48:44;;;;;;;7.13;1.75;;;8.40;91.90;;;;;;5134699;27;20405;-72
2023/12/10 02:51:09;;;;;;;8.35;1.85;;;8.40;91.90;;;;;;5112660;28;20125;-73
2023/12/10 02:53:35;;;;;;;5.60;1.65;;;8.40;91.90;;;;;;5113349;28;20059;-71
2023/12/10 02:56:01;;;;;;;7.68;1.83;;;8.40;91.90;;;;;;5114063;28;20032;-71
2023/12/10 02:58:27;;;;;;;5.55;1.52;;;8.30;91.90;;;;;;5112916;28;20118;-72
2023/12/10 03:00:55;;;;;;;4.78;1.42;;;8.30;92.00;;;;;;5125440;27;20069;-72
2023/12/10 03:03:21;;;;;;;7.85;1.45;;;8.30;92.00;;;;;;5074706;28;20132;-72
2023/12/10 03:05:47;;;;;;;7.03;1.10;;;8.40;92.00;;;;;;5091258;28;20131;-71
2023/12/10 03:08:12;;;;;;;10.48;1.90;;;8.30;92.00;;;;;;5091165;28;20048;-71
2023/12/10 03:10:38;;;;;;;9.23;2.15;;;8.30;92.10;;;;;;5057675;28;20147;-71
2023/12/10 03:13:04;;;;;;;5.47;1.42;;;8.20;92.10;;;;;;5074132;28;20075;-71
2023/12/10 03:15:30;;;;;;;7.53;1.88;;;8.20;92.00;;;;;;5091576;28;20093;-71
2023/12/10 03:17:56;;;;;;;4.75;1.65;;;8.20;92.10;;;;;;5057123;28;20135;-71
2023/12/10 03:20:21;;;;;;;7.70;1.60;;;8.20;92.10;;;;;;5091685;28;20066;-72
2023/12/10 03:22:47;;;;;;;5.60;1.65;;;8.20;92.10;;;;;;5074089;28;20047;-71
2023/12/10 03:25:13;;;;;;;7.35;1.80;;;8.20;92.10;;;;;;5074724;28;20055;-72
2023/12/10 03:27:39;;;;;;;9.10;2.15;;;8.10;92.10;;;;;;5074515;28;20056;-71
2023/12/10 03:30:05;;;;;;;7.60;1.80;;;8.20;92.10;;;;;;5057243;28;20487;-72
2023/12/10 03:32:31;;;;;;;7.53;1.88;;;8.10;92.00;;;;;;5091397;28;20056;-71
2023/12/10 03:34:57;;;;;;;8.45;1.92;;;8.20;92.10;;;;;;5108296;28;20040;-72
2023/12/10 03:37:22;;;;;;;7.60;2.25;;;8.20;92.10;;;;;;5113252;28;20043;-72
2023/12/10 03:39:48;;;;;;;7.75;1.65;;;8.30;92.10;;;;;;5111457;28;20032;-71
2023/12/10 03:42:14;;;;;;;9.88;2.20;;;8.20;92.00;;;;;;5115950;28;20043;-71
2023/12/10 03:44:40;;;;;;;6.47;1.67;;;8.30;92.00;;;;;;5133682;27;20046;-71
2023/12/10 03:47:06;;;;;;;6.72;1.90;;;8.30;92.00;;;;;;5134125;27;20130;-72
2023/12/10 03:49:32;;;;;;;7.47;2.10;;;8.20;92.00;;;;;;5116055;28;20126;-72
2023/12/10 03:51:58;;;;;;;6.03;1.80;;;8.30;92.00;;;;;;5111986;28;20452;-71
2023/12/10 03:54:27;;;;;;;6.60;1.80;;;8.30;92.00;;;;;;5094842;28;20067;-72
2023/12/10 03:56:52;;;;;;;7.93;1.77;;;8.30;91.90;;;;;;5070257;28;20036;-71
2023/12/10 03:59:18;;;;;;;10.93;2.30;;;8.30;91.90;;;;;;5070317;28;20040;-71
2023/12/10 04:01:44;;;;;;;8.25;1.92;;;8.30;91.90;;;;;;5053313;28;20040;-71
2023/12/10 04:04:11;;;;;;;10.00;1.77;;;8.30;91.90;;;;;;5070081;28;20041;-71
2023/12/10 04:06:39;;;;;;;9.98;2.28;;;8.30;91.90;;;;;;5069981;28;20514;-71
2023/12/10 04:09:06;;;;;;;12.52;2.80;;;8.30;92.00;;;;;;5070503;28;20053;-71
2023/12/10 04:11:32;;;;;;;9.98;2.17;;;8.30;91.90;;;;;;5069704;28;20053;-72
2023/12/10 04:13:58;;;;;;;7.20;1.80;;;8.30;91.90;;;;;;5070228;28;20450;-71
2023/12/10 04:16:25;;;;;;;11.45;2.00;;;8.30;91.80;;;;;;5070280;28;20037;-71
2023/12/10 04:18:51;;;;;;;10.30;2.10;;;8.30;91.90;;;;;;5053350;28;20419;-71
2023/12/10 04:21:20;;;;;;;5.10;1.85;;;8.30;91.90;;;;;;5069950;28;20039;-72
2023/12/10 04:23:46;;;;;;;6.50;2.13;;;8.30;91.90;;;;;;5069994;28;20087;-71
2023/12/10 04:26:12;;;;;;;9.95;2.00;;;8.40;91.90;;;;;;5069667;28;20040;-72
2023/12/10 04:28:39;;;;;;;12.13;2.20;;;8.40;91.90;;;;;;5101067;28;20054;-71
2023/12/10 04:31:05;;;;;;;11.38;2.40;;;8.40;91.90;;;;;;5132732;27;20035;-71
2023/12/10 04:33:31;;;;;;;9.65;2.38;;;8.40;91.80;;;;;;5133465;27;20035;-71
2023/12/10 04:35:56;;;;;;;6.45;1.83;;;8.40;91.80;;;;;;5133541;27;20039;-72
2023/12/10 04:38:22;;;;;;;10.75;2.47;;;8.40;91.80;;;;;;5114479;28;20039;-71
2023/12/10 04:40:48;;;;;;;9.32;2.28;;;8.40;91.80;;;;;;5132792;27;20027;-72
2023/12/10 04:43:14;;;;;;;10.35;2.75;;;8.40;91.80;;;;;;5132718;27;20133;-72
2023/12/10 04:45:41;;;;;;;6.82;1.80;;;8.40;91.80;;;;;;5111106;28;20043;-71
2023/12/10 04:48:07;;;;;;;6.63;1.60;;;8.40;91.70;;;;;;5112630;28;20036;-72
2023/12/10 04:50:32;;;;;;;9.77;1.95;;;8.40;91.60;;;;;;5129707;27;21177;-72
2023/12/10 04:52:58;;;;;;;8.68;2.35;;;8.60;91.70;;;;;;5116638;28;20126;-72
2023/12/10 04:55:25;;;;;;;8.02;2.05;;;8.40;91.60;;;;;;5114409;28;20403;-72
2023/12/10 04:57:51;;;;;;;6.97;1.90;;;8.50;91.70;;;;;;5131635;27;20039;-71
2023/12/10 05:00:16;;;;;;;9.77;1.95;;;8.50;91.70;;;;;;5136484;27;20078;-71
2023/12/10 05:02:42;;;;;;;7.03;1.80;;;8.50;91.70;;;;;;5136662;27;20091;-71
2023/12/10 05:05:08;;;;;;;10.48;2.22;;;8.50;91.70;;;;;;5118079;27;20039;-71
2023/12/10 05:07:35;;;;;;;12.82;2.30;;;8.60;91.60;;;;;;5136986;27;20104;-71
2023/12/10 05:10:01;;;;;;;7.35;2.22;;;8.50;91.60;;;;;;5136246;27;20043;-71
2023/12/10 05:12:27;;;;;;;8.57;2.10;;;8.60;91.60;;;;;;5117841;28;20039;-71
2023/12/10 05:14:52;;;;;;;7.72;1.95;;;8.50;91.50;;;;;;5117776;27;20578;-71
2023/12/10 05:17:18;;;;;;;10.50;2.38;;;8.50;91.50;;;;;;5135865;27;20035;-72
2023/12/10 05:19:44;;;;;;;12.20;2.03;;;8.50;91.50;;;;;;5117973;27;20118;-72
2023/12/10 05:22:10;;;;;;;9.05;1.58;;;8.60;91.50;;;;;;5136232;27;20411;-71
2023/12/10 05:24:35;;;;;;;8.90;2.25;;;8.60;91.50;;;;;;5136152;27;20132;-71
2023/12/10 05:27:01;;;;;;;9.68;2.28;;;8.60;91.40;;;;;;5114186;28;20407;-72
2023/12/10 05:29:27;;;;;;;9.48;2.17;;;8.60;91.40;;;;;;5114389;28;20089;-71
2023/12/10 05:31:53;;;;;;;9.93;2.30;;;8.70;91.40;;;;;;5115839;28;20040;-71
2023/12/10 05:34:18;;;;;;;9.70;2.38;;;8.60;91.30;;;;;;5130419;27;20071;-71
2023/12/10 05:36:45;;;;;;;14.43;2.20;;;8.70;91.30;;;;;;5136191;27;20482;-71
2023/12/10 05:39:10;;;;;;;5.97;2.08;;;8.70;91.30;;;;;;5135905;27;20042;-71
2023/12/10 05:41:37;;;;;;;8.43;2.13;;;8.70;91.30;;;;;;5136507;27;20039;-72
2023/12/10 05:44:02;;;;;;;7.80;2.08;;;8.70;91.20;;;;;;5117576;27;20436;-73
2023/12/10 05:46:28;;;;;;;9.48;2.20;;;8.70;91.20;;;;;;5136474;27;20043;-71
2023/12/10 05:48:57;;;;;;;10.90;1.92;;;8.70;91.20;;;;;;5100476;27;20405;-72
2023/12/10 05:51:23;;;;;;;7.93;1.67;;;8.70;91.20;;;;;;5100759;27;20070;-72
2023/12/10 05:53:50;;;;;;;10.20;2.03;;;8.70;91.10;;;;;;5117862;27;20486;-71
2023/12/10 05:56:16;;;;;;;7.85;1.90;;;8.80;91.20;;;;;;5117171;27;20091;-71
2023/12/10 05:58:42;;;;;;;9.40;2.55;;;8.80;91.10;;;;;;5135675;27;20043;-71
2023/12/10 06:01:08;;;;;;;10.30;2.05;;;8.80;91.10;;;;;;5135684;27;20491;-71
2023/12/10 06:03:34;;;;;;;7.80;1.70;;;8.90;91.10;;;;;;5134269;27;20092;-71
2023/12/10 06:05:59;;;;;;;14.13;3.05;;;8.90;91.10;;;;;;5117234;27;20035;-72
2023/12/10 06:08:25;;;;;;;9.77;2.50;;;8.80;91.00;;;;;;5079722;28;20088;-71
2023/12/10 06:10:51;;;;;;;10.07;2.28;;;8.80;91.00;;;;;;5114732;28;20040;-71
2023/12/10 06:13:17;;;;;;;14.80;2.40;;;8.80;91.00;;;;;;5131279;27;20376;-71
2023/12/10 06:15:44;;;;;;;12.27;3.08;;;8.80;90.90;;;;;;5135413;27;20393;-72
2023/12/10 06:18:09;;;;;;;12.35;2.38;;;8.90;90.90;;;;;;5116922;28;20043;-71
2023/12/10 06:20:35;;;;;;;11.20;2.70;;;8.90;90.80;;;;;;5135849;27;20027;-70
2023/12/10 06:23:02;;;;;;;10.48;2.10;;;8.90;90.70;;;;;;5117449;27;20391;-71
2023/12/10 06:25:28;;;;;;;11.27;2.60;;;8.90;90.70;;;;;;5135781;27;20055;-73
2023/12/10 06:27:56;;;;;;;10.40;2.38;;;8.90;90.70;;;;;;5135200;27;20050;-71
2023/12/10 06:30:23;;;;;;;9.95;2.78;;;8.90;90.70;;;;;;5117223;27;20100;-72
2023/12/10 06:32:49;;;;;;;12.70;2.55;;;8.90;90.60;;;;;;5096388;28;20118;-71
2023/12/10 06:35:15;;;;;;;12.18;2.45;;;8.90;90.60;;;;;;5113285;28;20035;-71
2023/12/10 06:37:41;;;;;;;11.93;2.72;;;8.80;90.60;;;;;;5113184;28;20046;-71
2023/12/10 06:40:08;;;;;;;10.70;2.95;;;8.90;90.60;;;;;;5113287;28;20043;-71
2023/12/10 06:42:34;;;;;;;12.32;2.38;;;8.80;90.60;;;;;;5132804;27;20114;-71
2023/12/10 06:45:00;;;;;;;14.55;2.80;;;8.90;90.60;;;;;;5113036;28;20149;-71
2023/12/10 06:47:26;;;;;;;10.48;2.42;;;8.80;90.50;;;;;;5112964;28;20556;-71
2023/12/10 06:49:52;;;;;;;8.65;2.08;;;8.80;90.50;;;;;;5112960;28;20044;-71
2023/12/10 06:52:18;;;;;;;9.80;2.45;;;8.90;90.50;;;;;;5132253;27;20070;-72
2023/12/10 06:54:44;;;;;;;8.57;2.58;;;8.90;90.50;;;;;;5134651;27;20414;-72
2023/12/10 06:57:10;;;;;;;7.97;2.10;;;8.90;90.50;;;;;;5116326;27;20483;-71
2023/12/10 06:59:36;;;;;;;10.70;2.50;;;8.80;90.50;;;;;;5117055;27;20039;-71
2023/12/10 07:02:02;;;;;;;7.97;2.00;;;8.90;90.50;;;;;;5134472;27;20088;-73
2023/12/10 07:04:28;;;;;;;9.77;2.13;;;8.90;90.50;;;;;;5135071;27;20134;-71
2023/12/10 07:06:55;;;;;;;13.70;2.05;;;8.90;90.40;;;;;;5116327;28;20110;-71
2023/12/10 07:09:22;;;;;;;8.55;1.88;;;9.00;90.50;;;;;;5134282;27;20077;-72
2023/12/10 07:11:49;;;;;;;10.05;2.40;;;8.90;90.40;;;;;;5134180;27;20031;-71
2023/12/10 07:14:15;;;;;;;11.48;2.17;;;9.00;90.40;;;;;;5114618;27;20105;-72
2023/12/10 07:16:41;;;;;;;10.85;2.17;;;9.00;90.30;;;;;;5134619;27;20491;-72
2023/12/10 07:19:06;;;;;;;7.18;1.95;;;9.00;90.20;;;;;;5116092;28;20039;-72
2023/12/10 07:21:32;;;;;;;10.90;2.33;;;9.00;90.20;;;;;;5134551;27;20038;-72
2023/12/10 07:23:58;;;;;;;8.65;2.30;;;9.00;90.20;;;;;;5134197;27;20043;-71
2023/12/10 07:26:25;;;;;;;8.07;1.80;;;9.10;90.20;;;;;;5095303;28;20046;-71
2023/12/10 07:28:51;;;;;;;11.35;2.05;;;9.10;90.20;;;;;;5112444;28;20047;-73
2023/12/10 07:31:18;;;;;;;7.32;1.75;;;9.00;90.20;;;;;;5130961;27;20091;-72
2023/12/10 07:33:44;;;;;;;9.95;1.75;;;9.00;90.20;;;;;;5116615;28;20032;-71
2023/12/10 07:36:10;;;;;;;9.52;2.20;;;9.00;90.20;;;;;;5116250;27;20112;-72
2023/12/10 07:38:37;;;;;;;9.95;2.08;;;9.00;90.10;;;;;;5115854;27;20058;-72
2023/12/10 07:41:04;;;;;;;7.05;1.65;;;9.10;90.20;;;;;;5133837;27;20051;-72
2023/12/10 07:43:30;;;;;;;6.32;1.58;;;9.00;90.20;;;;;;5115608;28;20058;-72
2023/12/10 07:45:56;;;;;;;8.25;1.70;;;9.00;90.20;;;;;;5095493;28;20075;-72
2023/12/10 07:48:22;;;;;;;6.85;2.00;;;9.00;90.20;;;;;;5111826;28;20517;-71
2023/12/10 07:50:48;;;;;;;9.35;2.13;;;9.00;90.10;;;;;;5128227;27;20119;-72
2023/12/10 07:53:15;;;;;;;6.32;1.98;;;9.00;90.40;;;;;;5115441;28;20035;-72
2023/12/10 07:55:41;;;;;;;6.80;1.80;;;9.00;90.10;;;;;;5112349;28;20039;-71
2023/12/10 07:58:07;;;;;;;6.10;1.73;;;9.00;90.10;;;;;;5113265;28;20066;-72
2023/12/10 08:00:33;;;;;;;6.90;1.58;;;9.00;90.10;;;;;;5112030;28;20499;-72
2023/12/10 08:02:59;;;;;;;7.35;1.83;;;9.00;90.10;;;;;;5125360;27;20043;-71
2023/12/10 08:05:26;;;;;;;5.72;1.55;;;8.90;90.10;;;;;;5111850;28;20043;-71
2023/12/10 08:07:51;;;;;;;8.07;1.55;;;9.00;90.10;;;;;;5111741;28;20043;-72
2023/12/10 08:10:18;;;;;;;13.38;2.15;;;9.10;90.10;;;;;;5111756;28;20101;-71
2023/12/10 08:12:44;;;;;;;9.02;1.63;;;9.00;90.10;;;;;;5094875;28;20035;-72
2023/12/10 08:15:10;;;;;;;9.00;1.92;;;9.00;90.00;;;;;;5111856;28;20506;-71
2023/12/10 08:17:36;;;;;;;10.80;2.00;;;9.00;90.00;;;;;;5130116;27;20050;-72
2023/12/10 08:20:02;;;;;;;8.13;1.88;;;9.10;90.30;;;;;;5115166;28;20026;-71
2023/12/10 08:22:28;;;;;;;8.70;2.08;;;9.00;90.00;;;;;;5114938;27;20057;-73
2023/12/10 08:24:54;;;;;;;8.85;2.00;;;9.00;89.90;;;;;;5133294;27;20499;-73
2023/12/10 08:27:20;;;;;;;10.00;2.00;;;9.10;89.90;;;;;;5110594;28;20039;-74
2023/12/10 08:29:46;;;;;;;11.50;2.25;;;9.00;89.80;;;;;;5111395;28;20047;-72
2023/12/10 08:32:11;;;;;;;5.47;1.42;;;9.10;89.80;;;;;;5130702;27;20509;-73
2023/12/10 08:34:38;;;;;;;7.40;1.70;;;9.00;89.70;;;;;;5114639;27;20122;-73
2023/12/10 08:37:06;;;;;;;5.72;1.65;;;9.10;89.90;;;;;;5133216;27;20035;-73
2023/12/10 08:39:32;;;;;;;7.75;1.80;;;9.10;89.80;;;;;;5114953;27;20054;-73
2023/12/10 08:41:58;;;;;;;5.90;2.08;;;9.10;89.80;;;;;;5132929;27;20188;-73
2023/12/10 08:44:27;;;;;;;4.65;1.55;;;9.00;89.70;;;;;;5133381;27;20042;-73
2023/12/10 08:46:53;;;;;;;7.70;1.90;;;9.10;89.90;;;;;;5132932;27;20038;-73
2023/12/10 08:49:19;;;;;;;8.25;1.98;;;9.00;89.80;;;;;;5133007;27;20035;-73
2023/12/10 08:51:45;;;;;;;5.55;1.63;;;9.00;89.70;;;;;;5114902;27;20053;-73
2023/12/10 08:54:11;;;;;;;6.80;1.88;;;9.00;89.80;;;;;;5133028;27;20035;-73
2023/12/10 08:56:37;;;;;;;6.35;1.75;;;9.20;89.80;;;;;;5133407;27;20118;-73
2023/12/10 08:59:04;;;;;;;6.20;1.45;;;9.10;89.80;;;;;;5132900;27;20047;-73
2023/12/10 09:01:30;;;;;;;9.43;1.60;;;9.10;89.90;;;;;;5115317;27;20091;-73
2023/12/10 09:03:56;;;;;;;5.47;1.10;;;9.00;89.80;;;;;;5133051;27;20039;-73
2023/12/10 09:06:22;;;;;;;4.68;1.10;;;9.10;89.90;;;;;;5111094;28;20047;-73
2023/12/10 09:08:48;;;;;;;5.72;1.25;;;9.10;89.80;;;;;;5113423;27;20068;-73
2023/12/10 09:11:14;;;;;;;4.70;1.50;;;9.10;89.70;;;;;;5114511;27;20452;-72
2023/12/10 09:13:40;;;;;;;4.43;1.20;;;9.10;89.70;;;;;;5132724;27;20088;-73
2023/12/10 09:16:06;;;;;;;6.32;1.85;;;9.20;89.70;;;;;;5132642;27;20035;-73
2023/12/10 09:18:32;;;;;;;7.88;1.65;;;9.10;89.60;;;;;;5132899;27;20070;-75
2023/12/10 09:20:58;;;;;;;5.97;1.50;;;9.20;89.60;;;;;;5132927;27;20122;-74
2023/12/10 09:23:25;;;;;;;7.15;1.70;;;9.20;89.60;;;;;;5132696;27;20128;-73
2023/12/10 09:25:51;;;;;;;4.97;1.25;;;9.20;89.70;;;;;;5069123;28;20045;-74
2023/12/10 09:28:18;;;;;;;8.90;2.15;;;9.20;89.60;;;;;;5069730;28;21511;-74
2023/12/10 09:30:44;;;;;;;5.30;1.33;;;9.20;89.50;;;;;;5052388;28;20131;-74
2023/12/10 09:33:10;;;;;;;5.40;1.33;;;9.20;89.50;;;;;;5035818;28;20525;-73
2023/12/10 09:35:36;;;;;;;6.22;1.40;;;9.20;89.50;;;;;;5035943;28;20408;-73
2023/12/10 09:38:03;;;;;;;5.15;1.40;;;9.30;89.60;;;;;;5071114;28;20044;-73
2023/12/10 09:40:31;;;;;;;5.38;1.48;;;9.20;89.50;;;;;;5056102;28;20037;-72
2023/12/10 09:42:58;;;;;;;6.97;1.20;;;9.20;89.50;;;;;;5056395;28;20081;-73
2023/12/10 09:45:23;;;;;;;4.53;1.10;;;9.20;89.50;;;;;;5072625;28;20573;-73
2023/12/10 09:47:50;;;;;;;4.85;1.02;;;9.30;89.50;;;;;;5072632;28;20044;-73
2023/12/10 09:50:20;;;;;;;5.88;1.50;;;9.20;89.50;;;;;;5072889;28;20090;-73
2023/12/10 09:52:45;;;;;;;3.72;1.30;;;9.40;89.50;;;;;;5039219;28;20475;-73
2023/12/10 09:55:11;;;;;;;2.92;1.00;;;9.30;89.50;;;;;;5072589;28;20068;-73
2023/12/10 09:57:38;;;;;;;6.03;1.10;;;9.30;89.50;;;;;;5122297;27;20550;-73
2023/12/10 10:00:06;;;;;;;4.47;1.20;;;9.30;89.50;;;;;;5117210;28;20054;-73
2023/12/10 10:02:33;;;;;;;4.68;1.23;;;9.30;89.50;;;;;;5135299;27;20047;-73
2023/12/10 10:05:01;;;;;;;4.85;1.52;;;9.30;89.50;;;;;;5117371;28;20042;-73
2023/12/10 10:07:29;;;;;;;6.15;1.17;;;9.30;89.50;;;;;;5099884;28;20081;-74
2023/12/10 10:09:55;;;;;;;5.22;1.23;;;9.40;89.50;;;;;;5135474;27;20452;-73
2023/12/10 10:12:21;;;;;;;2.95;0.93;;;9.30;89.40;;;;;;5116758;27;20039;-74
2023/12/10 10:14:56;;;;;;;4.13;1.30;;;9.30;89.40;;;;;;5117059;27;20087;-74
2023/12/10 10:17:30;;;;;;;4.93;0.98;;;9.30;89.50;;;;;;5135294;27;20047;-74
2023/12/10 10:19:57;;;;;;;4.10;0.90;;;9.30;89.50;;;;;;5117565;27;20050;-73
2023/12/10 10:22:27;;;;;;;2.85;0.80;;;9.30;89.50;;;;;;5116960;27;20096;-73
2023/12/10 10:24:57;;;;;;;3.30;1.23;;;9.30;89.60;;;;;;5097198;28;20514;-73
2023/12/10 10:27:24;;;;;;;4.18;1.00;;;9.40;89.60;;;;;;5071845;28;20048;-73
2023/12/10 10:29:54;;;;;;;2.90;0.98;;;9.40;89.60;;;;;;5071685;28;20044;-73
2023/12/10 10:32:21;;;;;;;3.70;1.10;;;9.40;89.60;;;;;;5035060;28;20040;-74
2023/12/10 10:34:48;;;;;;;2.72;0.85;;;9.30;89.50;;;;;;5051489;28;20044;-73
2023/12/10 10:37:15;;;;;;;3.25;1.00;;;9.40;89.50;;;;;;5051460;28;20071;-74
2023/12/10 10:39:42;;;;;;;5.15;1.10;;;9.40;89.50;;;;;;5035273;28;20041;-72
2023/12/10 10:42:09;;;;;;;3.17;1.13;;;9.50;89.60;;;;;;5051550;28;20049;-72
2023/12/10 10:44:36;;;;;;;8.43;1.33;;;9.50;89.50;;;;;;5051470;28;20594;-73
2023/12/10 10:47:05;;;;;;;3.13;1.17;;;9.50;89.50;;;;;;5051411;28;20543;-73
2023/12/10 10:49:33;;;;;;;5.10;1.13;;;9.40;89.40;;;;;;5035238;28;20053;-71
2023/12/10 10:52:03;;;;;;;4.70;1.23;;;9.50;89.40;;;;;;5051361;28;20045;-72
2023/12/10 10:54:31;;;;;;;5.53;1.30;;;9.50;89.30;;;;;;5051375;28;20029;-72
2023/12/10 10:56:57;;;;;;;3.95;1.52;;;9.60;89.40;;;;;;5051765;28;20192;-72
2023/12/10 10:59:31;;;;;;;4.68;1.40;;;9.60;89.30;;;;;;5108681;28;20035;-73
2023/12/10 11:02:00;;;;;;;6.05;1.35;;;9.70;89.30;;;;;;5094954;28;20055;-72
2023/12/10 11:04:39;;;;;;;5.68;1.25;;;9.70;89.20;;;;;;5125005;27;20043;-73
2023/12/10 11:07:05;;;;;;;7.25;1.35;;;9.70;89.10;;;;;;5116085;28;20509;-73
2023/12/10 11:09:32;;;;;;;4.50;1.13;;;9.70;89.10;;;;;;5112563;28;20482;-73
2023/12/10 11:11:58;;;;;;;5.65;1.17;;;9.80;89.00;;;;;;5114007;28;20043;-73
2023/12/10 11:14:25;;;;;;;5.53;1.30;;;9.80;89.00;;;;;;5112628;28;20040;-73
2023/12/10 11:17:09;;;;;;;3.03;1.25;;;9.80;89.00;;;;;;5070998;28;20040;-73
2023/12/10 11:19:36;;;;;;;7.97;1.83;;;9.90;89.00;;;;;;5071111;28;20045;-73
2023/12/10 11:22:02;;;;;;;5.80;1.33;;;10.00;88.90;;;;;;5070980;28;20048;-73
2023/12/10 11:24:28;;;;;;;5.28;1.15;;;10.00;88.80;;;;;;5037665;28;20040;-74
2023/12/10 11:26:57;;;;;;;4.63;1.20;;;10.10;88.70;;;;;;5037474;28;20044;-74
2023/12/10 11:29:22;;;;;;;4.80;1.20;;;10.00;88.70;;;;;;5071055;28;20132;-73
2023/12/10 11:31:48;;;;;;;4.15;1.05;;;10.10;88.70;;;;;;5037273;28;20127;-73
2023/12/10 11:34:14;;;;;;;9.10;1.27;;;10.00;88.70;;;;;;5054329;28;20047;-74
2023/12/10 11:36:45;;;;;;;5.20;1.17;;;10.00;88.90;;;;;;5037355;28;20471;-74
2023/12/10 11:39:13;;;;;;;4.07;1.27;;;10.00;88.80;;;;;;5071441;28;20124;-74
2023/12/10 11:41:41;;;;;;;6.57;1.67;;;10.00;88.90;;;;;;5053918;28;20078;-73
2023/12/10 11:44:07;;;;;;;5.47;1.40;;;10.10;89.00;;;;;;5054024;28;20152;-73
2023/12/10 11:46:32;;;;;;;5.47;1.40;;;10.20;89.50;;;;;;5071036;28;20044;-73
2023/12/10 11:48:58;;;;;;;4.32;1.25;;;10.30;88.80;;;;;;5110009;28;20127;-73
2023/12/10 11:51:24;;;;;;;2.95;0.80;;;10.40;88.60;;;;;;5112284;28;20047;-73
2023/12/10 11:53:50;;;;;;;6.43;1.40;;;10.40;88.50;;;;;;5111866;28;20067;-73
2023/12/10 11:56:16;;;;;;;3.45;1.20;;;10.50;88.40;;;;;;5130620;27;20069;-73
2023/12/10 11:58:45;;;;;;;5.57;1.15;;;10.60;88.30;;;;;;5134258;27;20027;-73
2023/12/10 12:01:11;;;;;;;5.63;1.35;;;10.50;88.10;;;;;;5114794;27;20039;-72
2023/12/10 12:03:37;;;;;;;5.00;1.10;;;10.40;88.10;;;;;;5133610;27;20084;-73
2023/12/10 12:06:04;;;;;;;3.42;1.05;;;10.30;88.30;;;;;;5133422;27;20043;-73
2023/12/10 12:08:30;;;;;;;4.10;1.20;;;10.30;88.50;;;;;;5115389;27;20043;-73
2023/12/10 12:10:57;;;;;;;4.40;1.00;;;10.20;88.80;;;;;;5090698;28;20541;-73
2023/12/10 12:13:24;;;;;;;4.07;1.10;;;10.10;88.90;;;;;;5094573;28;20079;-73
2023/12/10 12:15:51;;;;;;;3.28;0.82;;;10.10;89.20;;;;;;5079195;28;20043;-73
2023/12/10 12:18:16;;;;;;;3.28;1.05;;;10.20;89.30;;;;;;5133516;27;20117;-74
2023/12/10 12:20:43;;;;;;;4.57;1.00;;;10.20;89.30;;;;;;5133661;27;20067;-73
2023/12/10 12:23:09;;;;;;;4.43;0.82;;;10.30;89.20;;;;;;5133440;27;20043;-73
2023/12/10 12:25:37;;;;;;;2.20;0.70;;;10.30;89.10;;;;;;5133930;27;20065;-73
2023/12/10 12:28:06;;;;;;;4.00;0.73;;;10.40;89.00;;;;;;5094720;28;20515;-72
2023/12/10 12:30:33;;;;;;;1.63;0.70;;;10.50;88.90;;;;;;5115331;28;20380;-73
2023/12/10 12:32:59;;;;;;;5.38;1.02;;;10.50;88.70;;;;;;5114932;27;20048;-73
2023/12/10 12:35:25;;;;;;;3.72;0.90;;;10.50;88.50;;;;;;5114693;28;20035;-72
2023/12/10 12:37:51;;;;;;;3.35;0.95;;;10.40;88.40;;;;;;5110096;28;20136;-71
2023/12/10 12:40:17;;;;;;;3.45;1.20;;;10.50;88.50;;;;;;5112501;28;20054;-73
2023/12/10 12:42:43;;;;;;;4.07;1.02;;;10.50;88.50;;;;;;5113098;28;20092;-73
2023/12/10 12:45:09;;;;;;;3.40;0.80;;;10.40;88.50;;;;;;5112291;28;20445;-73
2023/12/10 12:47:35;;;;;;;5.10;0.93;;;10.40;88.60;;;;;;5113594;27;20547;-73
2023/12/10 12:50:00;;;;;;;3.13;0.90;;;10.40;88.60;;;;;;5097872;27;20482;-72